Time;durP1;ratioP1;P1;durP2;ratioP2;P2;SDS_P1;SDS_P2;PMS_P1;PMS_P2;Temp;Humidity;BMP_temperature;BMP_pressure;BME280_temperature;BME280_humidity;BME280_pressure;Samples;Min_cycle;Max_cycle;Signal;HPM_P1;HPM_P2
2022/11/21 00:01:12;;;;;;;9.85;5.22;;;;;;;5.10;100.00;100509.84;5073052;28;20116;-34
2022/11/21 00:03:37;;;;;;;11.68;5.75;;;;;;;5.07;100.00;100529.00;5072750;28;20028;-34
2022/11/21 00:06:03;;;;;;;16.60;7.20;;;;;;;5.09;100.00;100533.16;5072872;28;20028;-35
2022/11/21 00:08:29;;;;;;;13.90;6.73;;;;;;;5.04;100.00;100519.53;5073640;28;20033;-34
2022/11/21 00:10:58;;;;;;;10.85;5.00;;;;;;;5.11;100.00;100515.00;5072956;28;20032;-34
2022/11/21 00:13:23;;;;;;;8.38;5.38;;;;;;;5.11;100.00;100525.72;5073269;28;20028;-34
2022/11/21 00:15:49;;;;;;;9.73;5.20;;;;;;;5.14;100.00;100524.50;5072713;28;20067;-35
2022/11/21 00:18:15;;;;;;;13.20;5.80;;;;;;;5.15;100.00;100537.69;5073185;28;20024;-35
2022/11/21 00:20:41;;;;;;;12.75;6.07;;;;;;;5.14;100.00;100543.25;5072585;28;20028;-35
2022/11/21 00:23:07;;;;;;;11.18;7.03;;;;;;;5.13;100.00;100555.84;5073711;28;20047;-35
2022/11/21 00:25:32;;;;;;;13.30;7.53;;;;;;;5.13;100.00;100560.38;5072571;28;20112;-35
2022/11/21 00:27:58;;;;;;;15.73;9.68;;;;;;;5.00;100.00;100549.63;5072648;28;20024;-35
2022/11/21 00:30:23;;;;;;;15.47;10.47;;;;;;;5.08;100.00;100586.97;5072630;28;20044;-35
2022/11/21 00:32:49;;;;;;;17.38;12.43;;;;;;;5.03;100.00;100576.84;5072819;28;20120;-35
2022/11/21 00:35:14;;;;;;;19.90;14.13;;;;;;;4.98;100.00;100573.09;5072839;28;20060;-34
2022/11/21 00:37:40;;;;;;;20.13;15.40;;;;;;;4.86;100.00;100573.69;5073374;28;20052;-34
2022/11/21 00:40:05;;;;;;;23.25;17.13;;;;;;;4.77;100.00;100574.88;5075928;28;20123;-35
2022/11/21 00:42:31;;;;;;;21.65;16.05;;;;;;;4.79;100.00;100572.00;5075394;28;20056;-35
2022/11/21 00:44:56;;;;;;;26.10;18.47;;;;;;;4.49;100.00;100547.31;5076369;28;20467;-35
2022/11/21 00:47:21;;;;;;;25.80;18.67;;;;;;;4.38;100.00;100533.47;5076997;28;20090;-35
2022/11/21 00:49:47;;;;;;;23.57;18.27;;;;;;;4.23;100.00;100519.41;5076587;28;20431;-34
2022/11/21 00:52:12;;;;;;;22.50;18.27;;;;;;;4.24;100.00;100526.41;5076967;28;20031;-35
2022/11/21 00:54:38;;;;;;;21.87;18.03;;;;;;;4.18;100.00;100529.88;5077034;28;20063;-34
2022/11/21 00:57:03;;;;;;;25.07;17.80;;;;;;;4.32;100.00;100546.84;5076875;28;20025;-34
2022/11/21 00:59:28;;;;;;;22.67;17.90;;;;;;;4.32;100.00;100563.72;5077023;28;20028;-35
2022/11/21 01:01:54;;;;;;;19.93;14.73;;;;;;;4.43;100.00;100553.47;5076541;28;20123;-34
2022/11/21 01:04:19;;;;;;;22.43;17.03;;;;;;;4.36;100.00;100556.97;5076776;28;20459;-35
2022/11/21 01:06:44;;;;;;;24.50;17.87;;;;;;;4.35;100.00;100555.31;5076411;28;20525;-34
2022/11/21 01:09:11;;;;;;;24.58;18.42;;;;;;;4.30;100.00;100565.78;5076339;28;20106;-35
2022/11/21 01:11:36;;;;;;;23.70;18.20;;;;;;;4.19;100.00;100574.34;5075777;28;20491;-34
2022/11/21 01:14:01;;;;;;;20.43;17.23;;;;;;;4.25;100.00;100557.53;5076159;28;20522;-35
2022/11/21 01:16:28;;;;;;;21.77;17.27;;;;;;;4.24;100.00;100560.38;5076342;28;20460;-35
2022/11/21 01:18:54;;;;;;;22.15;16.58;;;;;;;4.23;100.00;100564.06;5076509;28;20102;-34
2022/11/21 01:21:30;;;;;;;23.25;17.30;;;;;;;4.20;100.00;100565.31;5075696;28;20064;-35
2022/11/21 01:23:58;;;;;;;20.02;16.70;;;;;;;4.19;100.00;100570.84;5076196;28;20029;-35
2022/11/21 01:26:25;;;;;;;24.80;18.02;;;;;;;4.15;100.00;100551.69;5076586;28;20035;-35
2022/11/21 01:28:51;;;;;;;20.58;15.82;;;;;;;4.15;100.00;100557.03;5076361;28;20078;-35
2022/11/21 01:31:22;;;;;;;20.85;16.80;;;;;;;4.15;100.00;100557.03;5075514;28;20411;-35
2022/11/21 01:33:48;;;;;;;20.85;15.85;;;;;;;4.16;100.00;100557.88;5076146;28;20395;-35
2022/11/21 01:36:39;;;;;;;19.70;16.08;;;;;;;4.20;100.00;100559.09;5075610;28;20025;-34
2022/11/21 01:39:06;;;;;;;20.13;16.40;;;;;;;4.24;100.00;100560.38;5075021;28;20040;-34
2022/11/21 01:41:37;;;;;;;23.77;18.33;;;;;;;4.13;100.00;100570.59;5075826;28;20468;-35
2022/11/21 01:44:22;;;;;;;26.30;18.42;;;;;;;3.94;100.00;100538.34;5075584;28;20028;-35
2022/11/21 01:46:49;;;;;;;26.42;19.17;;;;;;;3.91;100.00;100512.00;5075553;28;20036;-35
2022/11/21 01:49:23;;;;;;;26.27;19.25;;;;;;;3.90;100.00;100531.72;5075354;28;20415;-34
2022/11/21 01:51:57;;;;;;;25.35;18.45;;;;;;;3.86;100.00;100548.19;5076061;28;20115;-34
2022/11/21 01:54:25;;;;;;;23.55;18.05;;;;;;;3.93;100.00;100561.59;5075689;28;20372;-34
2022/11/21 01:57:11;;;;;;;22.90;17.55;;;;;;;3.94;100.00;100560.59;5075482;28;20032;-35
2022/11/21 01:59:48;;;;;;;26.08;18.58;;;;;;;3.93;100.00;100550.91;5076032;28;20028;-34
2022/11/21 02:02:16;;;;;;;25.13;18.23;;;;;;;3.97;100.00;100556.72;5075952;28;20121;-34
2022/11/21 02:04:43;;;;;;;23.92;18.70;;;;;;;3.93;100.00;100553.59;5074942;28;20029;-34
2022/11/21 02:07:11;;;;;;;23.55;18.30;;;;;;;3.94;100.00;100559.75;5075453;28;20380;-34
2022/11/21 02:09:40;;;;;;;29.23;19.67;;;;;;;3.81;100.00;100550.63;5075086;28;20044;-34
2022/11/21 02:12:24;;;;;;;27.58;18.80;;;;;;;3.85;100.00;100557.22;5075769;28;20033;-34
2022/11/21 02:14:51;;;;;;;24.73;18.90;;;;;;;3.77;100.00;100552.03;5075061;28;20462;-34
2022/11/21 02:17:18;;;;;;;24.30;18.92;;;;;;;3.88;100.00;100550.66;5074890;28;20025;-34
2022/11/21 02:19:52;;;;;;;;;;;;;;;4.00;100.00;100556.28;5075413;28;20028;-35
2022/11/21 02:22:34;;;;;;;24.88;17.85;;;;;;;3.98;100.00;100569.06;5075307;28;19908;-33
2022/11/21 02:25:19;;;;;;;20.85;16.73;;;;;;;4.01;100.00;100552.63;5075586;28;20024;-34
2022/11/21 02:27:45;;;;;;;21.63;16.38;;;;;;;4.08;100.00;100561.50;5075037;28;20365;-34
2022/11/21 02:30:12;;;;;;;24.05;18.95;;;;;;;4.00;100.00;100572.34;5074801;28;20042;-34
2022/11/21 02:32:40;;;;;;;24.05;19.00;;;;;;;3.95;100.00;100566.75;5074577;28;20058;-34
2022/11/21 02:35:06;;;;;;;24.80;19.10;;;;;;;4.00;100.00;100580.38;5074419;28;20074;-34
2022/11/21 02:37:34;;;;;;;28.75;18.90;;;;;;;3.88;100.00;100575.56;5074527;28;20028;-34
2022/11/21 02:40:05;;;;;;;27.35;20.40;;;;;;;3.87;100.00;100586.47;5074831;28;20025;-34
2022/11/21 02:42:35;;;;;;;27.63;20.63;;;;;;;3.88;100.00;100572.88;5074476;28;20474;-34
2022/11/21 02:45:22;;;;;;;30.33;20.98;;;;;;;3.78;100.00;100572.41;5074712;28;20025;-34
2022/11/21 02:47:50;;;;;;;30.30;20.05;;;;;;;3.80;100.00;100570.34;5074915;28;20060;-34
2022/11/21 02:50:21;;;;;;;28.85;21.35;;;;;;;3.77;100.00;100577.94;5074049;28;20058;-34
2022/11/21 02:52:47;;;;;;;27.38;20.58;;;;;;;3.72;100.00;100570.50;5074559;28;20380;-34
2022/11/21 02:55:14;;;;;;;25.33;19.40;;;;;;;3.88;100.00;100582.75;5074487;28;20028;-34
2022/11/21 02:57:39;;;;;;;27.88;21.58;;;;;;;3.85;100.00;100588.50;5074084;28;20028;-34
2022/11/21 03:00:06;;;;;;;28.23;20.13;;;;;;;3.90;100.00;100587.91;5074068;28;20492;-34
2022/11/21 03:02:31;;;;;;;28.75;20.52;;;;;;;3.88;100.00;100583.59;5073630;28;20051;-34
2022/11/21 03:04:56;;;;;;;29.87;19.50;;;;;;;3.89;100.00;100581.75;5073850;28;20024;-34
2022/11/21 03:07:22;;;;;;;28.77;20.83;;;;;;;3.93;100.00;100577.66;5073865;28;20079;-34
2022/11/21 03:09:47;;;;;;;28.37;19.83;;;;;;;3.93;100.00;100576.84;5073679;28;20177;-34
2022/11/21 03:12:12;;;;;;;28.13;20.03;;;;;;;3.90;100.00;100571.88;5074492;28;20149;-34
2022/11/21 03:14:38;;;;;;;31.43;20.03;;;;;;;3.90;100.00;100567.34;5073052;28;20335;-35
2022/11/21 03:17:03;;;;;;;32.80;21.30;;;;;;;3.90;100.00;100555.81;5073809;28;20031;-34
2022/11/21 03:19:29;;;;;;;27.70;19.60;;;;;;;3.88;100.00;100562.19;5073811;28;20023;-35
2022/11/21 03:21:55;;;;;;;33.67;21.38;;;;;;;3.74;100.00;100549.72;5073427;28;20043;-35
2022/11/21 03:24:20;;;;;;;36.13;22.25;;;;;;;3.81;100.00;100555.97;5073615;28;20025;-35
2022/11/21 03:26:46;;;;;;;30.20;20.65;;;;;;;3.85;100.00;100551.88;5073637;28;20108;-35
2022/11/21 03:29:11;;;;;;;27.80;19.43;;;;;;;3.94;100.00;100536.50;5073934;28;20029;-35
2022/11/21 03:31:36;;;;;;;28.93;20.27;;;;;;;3.97;100.00;100535.31;5072264;28;20024;-35
2022/11/21 03:34:02;;;;;;;28.77;20.57;;;;;;;3.92;100.00;100535.88;5074129;28;20052;-34
2022/11/21 03:36:27;;;;;;;26.27;20.13;;;;;;;3.87;100.00;100530.28;5073445;28;20035;-35
2022/11/21 03:38:56;;;;;;;26.53;19.37;;;;;;;3.91;100.00;100533.41;5073393;28;20032;-35
2022/11/21 03:41:29;;;;;;;33.00;21.17;;;;;;;3.99;100.00;100552.78;5073080;28;20107;-35
2022/11/21 03:44:02;;;;;;;38.60;21.15;;;;;;;3.92;100.00;100543.91;5073158;28;20115;-35
2022/11/21 03:46:29;;;;;;;32.70;20.33;;;;;;;3.88;100.00;100550.66;5073530;28;20027;-35
2022/11/21 03:48:55;;;;;;;28.30;18.65;;;;;;;4.00;100.00;100550.94;5071277;28;20040;-35
2022/11/21 03:51:21;;;;;;;31.40;20.02;;;;;;;3.96;100.00;100549.72;5073009;28;20078;-35
2022/11/21 03:53:47;;;;;;;33.55;19.75;;;;;;;4.00;100.00;100546.44;5074002;28;20039;-35
2022/11/21 03:56:12;;;;;;;34.70;21.47;;;;;;;3.98;100.00;100542.31;5072923;28;20025;-34
2022/11/21 03:58:37;;;;;;;29.80;20.30;;;;;;;3.98;100.00;100531.59;5073944;28;20372;-34
2022/11/21 04:01:03;;;;;;;38.07;20.70;;;;;;;3.91;100.00;100528.06;5072966;28;20377;-34
2022/11/21 04:03:28;;;;;;;34.58;19.75;;;;;;;3.95;100.00;100537.31;5072608;28;20032;-34
2022/11/21 04:05:54;;;;;;;34.70;21.27;;;;;;;3.92;100.00;100540.41;5071854;28;20063;-34
2022/11/21 04:08:19;;;;;;;39.37;20.80;;;;;;;3.93;100.00;100542.06;5073862;28;20056;-34
2022/11/21 04:10:49;;;;;;;29.63;18.37;;;;;;;4.03;100.00;100542.53;5072968;28;20036;-34
2022/11/21 04:13:15;;;;;;;33.95;20.00;;;;;;;3.83;100.00;100529.84;5072462;28;20465;-34
2022/11/21 04:15:40;;;;;;;32.75;20.27;;;;;;;3.84;100.00;100539.53;5073099;28;20070;-35
2022/11/21 04:18:06;;;;;;;39.17;20.52;;;;;;;3.85;100.00;100559.88;5073080;28;20036;-35
2022/11/21 04:20:32;;;;;;;55.53;22.52;;;;;;;3.72;100.00;100559.81;5073029;28;20063;-35
2022/11/21 04:22:57;;;;;;;28.30;17.53;;;;;;;3.85;100.00;100557.22;5072763;28;20499;-35
2022/11/21 04:25:22;;;;;;;38.37;20.90;;;;;;;3.84;100.00;100552.91;5072762;28;20290;-34
2022/11/21 04:27:47;;;;;;;32.37;17.23;;;;;;;3.96;100.00;100555.88;5073053;28;20123;-35
2022/11/21 04:30:13;;;;;;;33.47;20.70;;;;;;;4.01;100.00;100552.63;5073520;28;20027;-35
2022/11/21 04:32:39;;;;;;;36.00;20.73;;;;;;;3.96;100.00;100547.84;5072943;28;20028;-34
2022/11/21 04:35:04;;;;;;;31.77;20.73;;;;;;;3.93;100.00;100558.94;5072602;28;20396;-34
2022/11/21 04:37:30;;;;;;;28.48;19.23;;;;;;;4.00;100.00;100554.47;5073045;28;20032;-34
2022/11/21 04:39:55;;;;;;;24.87;18.30;;;;;;;3.98;100.00;100535.09;5071809;28;20063;-34
2022/11/21 04:42:20;;;;;;;28.77;18.80;;;;;;;4.03;100.00;100542.53;5072616;28;20530;-34
2022/11/21 04:44:45;;;;;;;25.73;18.50;;;;;;;3.99;100.00;100520.69;5072452;28;20094;-35
2022/11/21 04:47:11;;;;;;;24.07;18.30;;;;;;;3.99;100.00;100504.63;5073313;28;20028;-34
2022/11/21 04:49:36;;;;;;;32.43;18.53;;;;;;;4.03;100.00;100521.13;5072007;28;20024;-35
2022/11/21 04:52:02;;;;;;;43.97;19.57;;;;;;;3.98;100.00;100512.88;5072778;28;20487;-35
2022/11/21 04:54:27;;;;;;;24.17;18.63;;;;;;;4.07;100.00;100520.53;5073014;28;20066;-35
2022/11/21 04:56:52;;;;;;;32.40;18.43;;;;;;;4.02;100.00;100514.97;5072658;28;20020;-35
2022/11/21 04:59:17;;;;;;;36.60;19.87;;;;;;;4.00;100.00;100510.81;5072731;28;20111;-35
2022/11/21 05:01:43;;;;;;;60.57;20.23;;;;;;;3.94;100.00;100500.91;5073001;28;20060;-35
2022/11/21 05:04:08;;;;;;;51.20;18.53;;;;;;;3.90;100.00;100510.34;5072704;28;20104;-35
2022/11/21 05:06:33;;;;;;;32.47;17.73;;;;;;;3.90;100.00;100513.84;5072892;28;20060;-34
2022/11/21 05:08:59;;;;;;;72.37;19.27;;;;;;;3.87;100.00;100507.03;5071192;28;20447;-35
2022/11/21 05:14:08;;;;;;;122.93;21.60;;;;;;;3.68;100.00;100491.69;5073101;28;20094;-36
2022/11/21 05:16:34;;;;;;;38.97;17.10;;;;;;;3.84;100.00;100491.38;5072273;28;20037;-34
2022/11/21 05:18:59;;;;;;;52.22;17.90;;;;;;;3.77;100.00;100485.16;5071950;28;20032;-35
2022/11/21 05:21:24;;;;;;;57.30;18.48;;;;;;;3.71;100.00;100485.94;5071219;28;20086;-35
2022/11/21 05:23:50;;;;;;;65.83;19.90;;;;;;;3.70;100.00;100473.56;5072344;28;20037;-34
2022/11/21 05:26:15;;;;;;;75.27;18.63;;;;;;;3.76;100.00;100475.50;5075160;28;20025;-35
2022/11/21 05:28:40;;;;;;;82.57;18.73;;;;;;;3.64;100.00;100485.06;5076564;28;20139;-35
2022/11/21 05:31:06;;;;;;;57.10;17.33;;;;;;;3.71;100.00;100485.09;5074957;28;20456;-34
2022/11/21 05:33:31;;;;;;;70.53;18.97;;;;;;;3.69;100.00;100479.13;5075940;28;20162;-35
2022/11/21 05:35:57;;;;;;;92.53;18.23;;;;;;;3.64;100.00;100487.72;5075537;28;20043;-35
2022/11/21 05:38:22;;;;;;;38.00;14.23;;;;;;;3.72;100.00;100476.91;5076564;28;20078;-35
2022/11/21 05:40:47;;;;;;;86.00;17.97;;;;;;;3.72;100.00;100487.59;5075449;28;20028;-34
2022/11/21 05:45:56;;;;;;;70.30;18.02;;;;;;;3.71;100.00;100480.59;5075656;28;20090;-35
2022/11/21 05:48:21;;;;;;;77.57;16.60;;;;;;;3.69;100.00;100471.09;5076265;28;20028;-38
2022/11/21 05:50:48;;;;;;;79.93;16.60;;;;;;;3.74;100.00;100474.03;5076094;28;20039;-34
2022/11/21 05:53:14;;;;;;;44.55;13.93;;;;;;;3.76;100.00;100472.81;5075825;28;20032;-34
2022/11/21 05:55:39;;;;;;;50.65;14.82;;;;;;;3.71;100.00;100480.59;5075400;28;20025;-34
2022/11/21 05:58:04;;;;;;;58.03;15.13;;;;;;;3.55;100.00;100454.97;5075045;28;20108;-34
2022/11/21 06:00:30;;;;;;;59.80;14.20;;;;;;;3.60;100.00;100449.03;5075038;28;20044;-34
2022/11/21 06:05:39;;;;;;;57.25;16.40;;;;;;;3.57;100.00;100436.06;5075292;28;20054;-34
2022/11/21 06:08:05;;;;;;;48.40;15.23;;;;;;;3.65;100.00;100449.28;5075161;28;20500;-34
2022/11/21 06:10:30;;;;;;;43.60;16.43;;;;;;;3.68;100.00;100448.88;5075172;28;20040;-35
2022/11/21 06:12:59;;;;;;;50.23;16.77;;;;;;;3.72;100.00;100455.50;5075285;28;20483;-34
2022/11/21 06:15:24;;;;;;;44.85;16.02;;;;;;;3.71;100.00;100461.88;5075027;28;20120;-34
2022/11/21 06:17:49;;;;;;;37.07;15.00;;;;;;;3.79;100.00;100466.25;5075730;28;20112;-35
2022/11/21 06:20:15;;;;;;;50.07;16.60;;;;;;;3.78;100.00;100468.09;5075207;28;20111;-35
2022/11/21 06:22:40;;;;;;;44.40;16.60;;;;;;;3.86;100.00;100467.13;5074607;28;20400;-35
2022/11/21 06:25:06;;;;;;;31.87;17.53;;;;;;;3.87;100.00;100464.25;5074763;28;20036;-35
2022/11/21 06:27:31;;;;;;;33.92;17.23;;;;;;;3.89;100.00;100456.00;5074986;28;20039;-35
2022/11/21 06:29:56;;;;;;;42.27;15.40;;;;;;;3.91;100.00;100455.84;5074801;28;20111;-35
2022/11/21 06:32:21;;;;;;;39.00;16.33;;;;;;;3.88;100.00;100436.47;5074965;28;20107;-35
2022/11/21 06:34:47;;;;;;;28.70;16.53;;;;;;;3.87;100.00;100432.16;5074587;28;20092;-35
2022/11/21 06:37:12;;;;;;;24.37;15.43;;;;;;;4.00;100.00;100435.91;5074358;28;20021;-35
2022/11/21 06:39:37;;;;;;;28.30;16.80;;;;;;;4.03;100.00;100432.84;5074599;28;20054;-35
2022/11/21 06:42:03;;;;;;;29.97;17.00;;;;;;;4.01;100.00;100443.75;5074469;28;20024;-35
2022/11/21 06:44:28;;;;;;;25.03;16.67;;;;;;;3.99;100.00;100419.03;5074682;28;20028;-35
2022/11/21 06:46:53;;;;;;;26.33;17.07;;;;;;;3.98;100.00;100420.06;5074066;28;20028;-35
2022/11/21 06:49:20;;;;;;;30.40;17.73;;;;;;;4.07;100.00;100434.91;5075124;28;20102;-35
2022/11/21 06:51:46;;;;;;;22.88;16.38;;;;;;;4.11;100.00;100438.03;5074924;28;20094;-35
2022/11/21 06:54:11;;;;;;;25.83;16.20;;;;;;;4.14;100.00;100432.25;5074363;28;20372;-35
2022/11/21 06:56:37;;;;;;;26.20;17.43;;;;;;;4.14;100.00;100427.75;5074013;28;20060;-35
2022/11/21 06:59:02;;;;;;;22.43;16.67;;;;;;;4.11;100.00;100419.31;5073862;28;20020;-35
2022/11/21 07:01:27;;;;;;;20.03;16.10;;;;;;;4.18;100.00;100422.81;5074281;28;20470;-35
2022/11/21 07:03:53;;;;;;;27.10;17.47;;;;;;;4.17;100.00;100421.19;5074377;28;20063;-35
2022/11/21 07:06:19;;;;;;;18.58;15.02;;;;;;;4.21;100.00;100414.41;5072961;28;20039;-35
2022/11/21 07:08:44;;;;;;;21.70;15.93;;;;;;;4.26;100.00;100408.44;5074495;28;20032;-35
2022/11/21 07:11:12;;;;;;;24.10;18.10;;;;;;;4.23;100.00;100419.53;5074085;28;20029;-35
2022/11/21 07:13:38;;;;;;;22.90;16.40;;;;;;;4.25;100.00;100412.97;5074355;28;20504;-36
2022/11/21 07:16:08;;;;;;;20.87;16.60;;;;;;;4.27;100.00;100410.09;5073738;28;20108;-35
2022/11/21 07:18:34;;;;;;;20.58;16.65;;;;;;;4.22;100.00;100401.84;5073853;28;20025;-35
2022/11/21 07:21:01;;;;;;;20.25;16.40;;;;;;;4.29;100.00;100408.03;5074095;28;20036;-35
2022/11/21 07:23:28;;;;;;;22.65;17.50;;;;;;;4.18;100.00;100382.69;5074093;28;20115;-35
2022/11/21 07:25:53;;;;;;;;;;;;;;;4.31;100.00;100401.47;5073912;28;20417;-35
2022/11/21 07:28:19;;;;;;;21.42;16.38;;;;;;;4.26;100.00;100393.22;5074185;28;19994;-35
2022/11/21 07:30:44;;;;;;;22.13;17.07;;;;;;;4.28;100.00;100395.69;5073368;28;20057;-35
2022/11/21 07:33:09;;;;;;;18.70;14.83;;;;;;;4.32;100.00;100400.44;5074131;28;20031;-35
2022/11/21 07:35:35;;;;;;;18.67;14.97;;;;;;;4.35;100.00;100412.59;5073623;28;20111;-35
2022/11/21 07:38:01;;;;;;;18.87;15.50;;;;;;;4.42;100.00;100407.25;5073479;28;20068;-35
2022/11/21 07:40:26;;;;;;;20.30;16.17;;;;;;;4.43;100.00;100411.59;5072215;28;20270;-35
2022/11/21 07:42:52;;;;;;;19.60;16.87;;;;;;;4.43;100.00;100403.56;5073435;28;20024;-35
2022/11/21 07:45:18;;;;;;;21.00;17.15;;;;;;;4.44;100.00;100405.19;5074147;28;20043;-35
2022/11/21 07:47:43;;;;;;;19.95;15.43;;;;;;;4.47;100.00;100399.44;5072582;28;20103;-35
2022/11/21 07:50:10;;;;;;;21.63;16.60;;;;;;;4.48;100.00;100399.25;5073578;28;20024;-35
2022/11/21 07:52:37;;;;;;;18.83;15.40;;;;;;;4.52;100.00;100394.31;5073867;28;20029;-35
2022/11/21 07:55:04;;;;;;;19.65;15.95;;;;;;;4.56;100.00;100398.25;5073555;28;20461;-35
2022/11/21 07:57:30;;;;;;;18.48;15.05;;;;;;;4.61;100.00;100406.50;5071697;28;20029;-35
2022/11/21 07:59:56;;;;;;;;;;;;;;;4.64;100.00;100401.56;5073508;28;20119;-35
2022/11/21 08:02:25;;;;;;;18.33;14.70;;;;;;;4.62;100.00;100384.84;5073461;28;19948;-35
2022/11/21 08:04:51;;;;;;;18.35;16.17;;;;;;;4.58;100.00;100378.25;5073447;28;20051;-35
2022/11/21 08:07:18;;;;;;;19.90;15.30;;;;;;;4.73;100.00;100385.28;5071920;28;20461;-35
2022/11/21 08:09:44;;;;;;;21.80;16.38;;;;;;;4.74;100.00;100385.09;5073612;28;20029;-35
2022/11/21 08:12:09;;;;;;;21.50;16.02;;;;;;;4.81;100.00;100385.91;5073633;28;20383;-33
2022/11/21 08:14:35;;;;;;;18.63;15.55;;;;;;;4.86;100.00;100388.00;5073687;28;20038;-33
2022/11/21 08:17:02;;;;;;;22.65;15.95;;;;;;;4.89;100.00;100377.69;5073628;28;20366;-34
2022/11/21 08:19:27;;;;;;;17.95;14.98;;;;;;;4.90;100.00;100379.34;5073296;28;20120;-34
2022/11/21 08:21:52;;;;;;;16.73;13.37;;;;;;;4.99;100.00;100376.47;5072925;28;20095;-34
2022/11/21 08:24:17;;;;;;;17.47;13.53;;;;;;;5.04;100.00;100371.31;5073265;28;20024;-34
2022/11/21 08:26:44;;;;;;;16.87;13.73;;;;;;;5.01;100.00;100364.50;5072957;28;20029;-34
2022/11/21 08:29:11;;;;;;;17.02;12.90;;;;;;;5.06;100.00;100361.19;5073214;28;20086;-34
2022/11/21 08:31:37;;;;;;;17.63;12.77;;;;;;;5.10;100.00;100368.63;5073166;28;20094;-33
2022/11/21 08:34:03;;;;;;;19.20;12.55;;;;;;;5.11;100.00;100367.59;5072867;28;20024;-34
2022/11/21 08:36:28;;;;;;;15.18;12.68;;;;;;;5.14;100.00;100361.81;5072825;28;20398;-34
2022/11/21 08:38:53;;;;;;;15.30;12.40;;;;;;;5.17;100.00;100352.53;5072235;28;20098;-34
2022/11/21 08:44:07;;;;;;;14.23;11.32;;;;;;;5.24;100.00;100336.44;5070599;28;20492;-35
2022/11/21 08:46:36;;;;;;;14.95;10.00;;;;;;;5.29;100.00;100336.66;5070620;28;20087;-35
2022/11/21 08:49:02;;;;;;;12.18;10.10;;;;;;;5.27;100.00;100319.94;5070508;28;20078;-35
2022/11/21 08:51:28;;;;;;;12.75;9.90;;;;;;;5.22;100.00;100309.00;5071068;28;20381;-35
2022/11/21 08:53:53;;;;;;;13.27;9.27;;;;;;;5.39;100.00;100334.38;5070660;28;20041;-35
2022/11/21 08:56:19;;;;;;;12.50;8.50;;;;;;;5.40;100.00;100331.47;5070825;28;20290;-35
2022/11/21 08:58:44;;;;;;;12.83;8.33;;;;;;;5.35;100.00;100317.03;5071021;28;20025;-35
2022/11/21 09:01:09;;;;;;;10.80;7.47;;;;;;;5.34;100.00;100313.53;5074140;28;20177;-34
2022/11/21 09:03:34;;;;;;;10.77;7.40;;;;;;;5.43;100.00;100319.50;5074235;28;20094;-35
2022/11/21 09:06:00;;;;;;;10.13;7.20;;;;;;;5.46;100.00;100318.25;5073983;28;20085;-34
2022/11/21 09:08:26;;;;;;;8.60;6.53;;;;;;;5.47;100.00;100311.88;5074007;28;20076;-35
2022/11/21 09:10:51;;;;;;;9.30;6.47;;;;;;;5.53;100.00;100313.72;5073970;28;20115;-34
2022/11/21 09:13:17;;;;;;;10.35;6.07;;;;;;;5.48;100.00;100286.69;5074342;28;20040;-34
2022/11/21 09:18:26;;;;;;;8.82;5.43;;;;;;;5.59;100.00;100307.50;5074137;28;20098;-34
2022/11/21 09:20:52;;;;;;;8.23;5.47;;;;;;;5.66;100.00;100300.22;5075263;28;20037;-34
2022/11/21 09:23:17;;;;;;;10.73;5.83;;;;;;;5.76;100.00;100306.00;5076324;28;20261;-35
2022/11/21 09:25:43;;;;;;;9.37;4.93;;;;;;;5.75;100.00;100290.91;5075819;28;20017;-35
2022/11/21 09:28:10;;;;;;;10.98;5.63;;;;;;;5.77;100.00;100286.19;5075944;28;20037;-34
2022/11/21 09:30:36;;;;;;;9.57;5.25;;;;;;;5.93;100.00;100296.44;5075907;28;20028;-35
2022/11/21 09:33:04;;;;;;;11.52;5.32;;;;;;;5.98;100.00;100300.34;5075581;28;20107;-34
2022/11/21 09:35:30;;;;;;;10.95;5.95;;;;;;;6.00;100.00;100303.63;5075751;28;20121;-34
2022/11/21 09:37:55;;;;;;;10.43;4.40;;;;;;;5.90;100.00;100283.44;5076034;28;20059;-35
2022/11/21 09:40:22;;;;;;;12.00;5.87;;;;;;;6.01;100.00;100292.69;5075793;28;20056;-36
2022/11/21 09:43:18;;;;;;;8.90;4.03;;;;;;;6.05;100.00;100280.50;5076453;28;20035;-35
2022/11/21 09:45:43;;;;;;;6.30;4.00;;;;;;;6.11;100.00;100276.13;5076330;28;20044;-34
2022/11/21 09:48:16;;;;;;;9.37;4.17;;;;;;;6.17;100.00;100280.63;5075596;28;20036;-33
2022/11/21 09:50:46;;;;;;;5.75;3.58;;;;;;;6.14;100.00;100265.75;5076048;28;20171;-35
2022/11/21 09:53:55;;;;;;;9.55;4.00;;;;;;;6.23;100.00;100269.03;5076174;28;20033;-36
2022/11/21 09:56:22;;;;;;;6.43;3.55;;;;;;;6.37;100.00;100275.13;5073208;28;20033;-35
2022/11/21 09:58:56;;;;;;;6.72;3.08;;;;;;;6.42;100.00;100275.31;5075035;28;20025;-35
2022/11/21 10:01:21;;;;;;;6.38;3.38;;;;;;;6.44;100.00;100257.94;5075374;28;20025;-35
2022/11/21 10:03:51;;;;;;;9.10;3.87;;;;;;;6.42;100.00;100243.06;5075276;28;20043;-35
2022/11/21 10:06:19;;;;;;;7.07;3.60;;;;;;;6.58;100.00;100258.63;5074932;28;20107;-35
2022/11/21 10:08:59;;;;;;;7.57;3.50;;;;;;;6.59;100.00;100254.94;5074870;28;20033;-36
2022/11/21 10:15:12;;;;;;;6.38;3.03;;;;;;;6.56;100.00;100249.16;5075546;28;20068;-34
2022/11/21 10:17:55;;;;;;;7.75;3.40;;;;;;;6.54;100.00;100244.03;5033438;28;20059;-34
2022/11/21 10:20:47;;;;;;;10.80;3.55;;;;;;;6.62;100.00;100243.72;5032697;28;20650;-34
2022/11/21 10:23:35;;;;;;;8.63;3.30;;;;;;;6.75;100.00;100242.81;5033276;28;20092;-34
2022/11/21 10:26:16;;;;;;;5.32;3.00;;;;;;;6.84;100.00;100235.28;5032866;28;20021;-35
2022/11/21 10:28:50;;;;;;;8.80;3.40;;;;;;;6.83;100.00;100226.41;5033141;28;20115;-36
2022/11/21 10:31:17;;;;;;;8.00;3.55;;;;;;;6.78;100.00;100212.78;5032461;28;20126;-35
2022/11/21 10:33:43;;;;;;;6.78;3.20;;;;;;;6.82;100.00;100216.69;5033108;28;20060;-35
2022/11/21 10:36:10;;;;;;;7.43;3.90;;;;;;;6.77;100.00;100218.38;5032695;28;20044;-35
2022/11/21 10:38:39;;;;;;;9.40;3.45;;;;;;;6.63;100.00;100218.50;5032866;28;20029;-35
2022/11/21 10:41:16;;;;;;;8.18;3.85;;;;;;;6.69;100.00;100227.56;5032362;28;20033;-34
2022/11/21 10:46:33;;;;;;;7.07;3.65;;;;;;;6.62;100.00;100199.94;5032457;28;20410;-37
2022/11/21 10:49:00;;;;;;;6.80;3.13;;;;;;;6.67;100.00;100202.78;5065511;28;20044;-40
2022/11/21 10:51:41;;;;;;;7.18;3.30;;;;;;;6.50;100.00;100183.72;5074150;28;20468;-34
2022/11/21 10:57:00;;;;;;;7.97;3.08;;;;;;;6.62;100.00;100198.06;5074077;28;20035;-34
2022/11/21 10:59:28;;;;;;;8.50;3.63;;;;;;;6.63;100.00;100196.19;5074354;28;20480;-35
2022/11/21 11:02:15;;;;;;;6.10;2.80;;;;;;;6.68;100.00;100199.84;5073860;28;20020;-35
2022/11/21 11:04:40;;;;;;;7.53;4.18;;;;;;;6.75;100.00;100185.56;5066216;28;20041;-34
2022/11/21 11:07:20;;;;;;;9.10;2.93;;;;;;;6.78;100.00;100177.84;5073153;28;20048;-34
2022/11/21 11:09:46;;;;;;;8.32;2.97;;;;;;;6.89;100.00;100176.31;5073806;28;20109;-34
2022/11/21 11:15:21;;;;;;;7.25;3.20;;;;;;;7.20;100.00;100168.09;5074106;28;20036;-35
2022/11/21 11:18:02;;;;;;;9.82;3.10;;;;;;;7.30;100.00;100151.41;5073949;28;20025;-35
2022/11/21 11:20:31;;;;;;;6.47;2.83;;;;;;;7.43;100.00;100159.34;5074316;28;20025;-35
2022/11/21 11:22:56;;;;;;;6.35;3.00;;;;;;;7.47;100.00;100149.75;5073804;28;20025;-34
2022/11/21 11:25:22;;;;;;;11.83;3.87;;;;;;;7.54;100.00;100140.78;5074173;28;20031;-35
2022/11/21 11:27:48;;;;;;;6.82;2.78;;;;;;;7.65;100.00;100140.00;5073986;28;20259;-35
2022/11/21 11:30:15;;;;;;;8.52;2.90;;;;;;;7.74;100.00;100144.81;5073606;28;20059;-34
2022/11/21 11:32:41;;;;;;;5.13;2.10;;;;;;;7.77;100.00;100131.97;5073226;28;20028;-35
2022/11/21 11:35:12;;;;;;;8.50;3.53;;;;;;;7.72;100.00;100105.75;5073205;28;20026;-35
2022/11/21 11:37:40;;;;;;;4.78;2.53;;;;;;;7.83;100.00;100120.28;5073532;28;20028;-35
2022/11/21 11:40:20;;;;;;;8.55;2.33;;;;;;;7.89;100.00;100117.47;5073431;28;20128;-35
2022/11/21 11:49:03;;;;;;;7.82;2.97;;;;;;;7.92;100.00;100092.78;5073799;28;20353;-34